UUWW/VKO METAR and TAF weather

Enter ICAO airport designator
Station Type Date Time Source
UUWW METAR 2019/08/19 22:30 UTC NOAA

UUWW 192230Z 19003MPS CAVOK 14/12 Q1020 R24/000070 TEMPO 0300 FG FEW002


Station Type Date Time Source
UUWW Decoded METAR 2019/08/19 22:30 UTC NOAA

Moscow / Vnukovo , Russia (UUWW) 55-39N 037-16E
Aug 19, 2019 - 06:30 PM EDT / 2019.08.19 2230 UTC
Wind: from the S (190 degrees) at 7 MPH (6 KT):0
Visibility: greater than 7 mile(s):0
Temperature: 57 F (14 C)
Dew Point: 53 F (12 C)
Relative Humidity: 87%
Pressure (altimeter): 30.12 in. Hg (1020 hPa)
ob: UUWW 192230Z 19003MPS CAVOK 14/12 Q1020 R24/000070 TEMPO 0300 FG FEW002
cycle: 22

Station Type Date Time Source
UUWW TAF 2019/08/19 21:21 UTC NOAA

TAF UUWW 191953Z 1921/2021 20003MPS 3000 BR BKN004 TX24/2012Z TN12/2002Z
TEMPO 1921/2005 0300 FG BKN002
BECMG 2006/2008 9999 NSW SCT020 PROB40
TEMPO 2015/2021 2100 -TSRA FEW007 BKN025CB

Example: see airport list